createdAt,value
2022-07-29T00:01:00.339Z,67.17
2022-07-29T00:03:26.846Z,67.04
2022-07-29T00:05:54.125Z,67.58
2022-07-29T00:08:21.023Z,67.51
2022-07-29T00:10:47.561Z,67.56
2022-07-29T00:13:14.182Z,67.54
2022-07-29T00:15:40.745Z,67.51
2022-07-29T00:18:07.295Z,67.23
2022-07-29T00:20:33.762Z,67.25
2022-07-29T00:23:00.478Z,67.82
2022-07-29T00:25:27.114Z,67.38
2022-07-29T00:27:53.610Z,67.76
2022-07-29T00:30:20.291Z,67.59
2022-07-29T00:32:46.782Z,67.47
2022-07-29T00:35:31.567Z,68.10
2022-07-29T00:38:02.154Z,67.68
2022-07-29T00:40:28.775Z,68.61
2022-07-29T00:42:55.468Z,67.79
2022-07-29T00:45:23.071Z,67.44
2022-07-29T00:47:49.886Z,68.03
2022-07-29T00:50:16.640Z,68.39
2022-07-29T00:52:43.685Z,68.40
2022-07-29T00:55:13.362Z,68.67
2022-07-29T00:57:41.188Z,68.31
2022-07-29T01:00:10.464Z,68.09
2022-07-29T01:02:37.144Z,67.80
2022-07-29T01:05:05.181Z,67.93
2022-07-29T01:07:33.250Z,68.24
2022-07-29T01:10:00.151Z,67.98
2022-07-29T01:12:28.435Z,67.91
2022-07-29T01:14:56.556Z,67.82
2022-07-29T01:17:52.789Z,68.42
2022-07-29T01:20:43.272Z,68.47
2022-07-29T01:23:27.254Z,68.42
2022-07-29T01:26:20.270Z,68.12
2022-07-29T01:29:12.168Z,68.25
2022-07-29T01:32:00.588Z,69.05
2022-07-29T01:34:41.606Z,68.66
2022-07-29T01:37:18.706Z,68.44
2022-07-29T01:39:48.405Z,69.06
2022-07-29T01:42:33.952Z,68.22
2022-07-29T01:45:10.254Z,68.78
2022-07-29T01:47:55.257Z,68.47
2022-07-29T01:50:27.620Z,68.56
2022-07-29T01:52:59.438Z,68.83
2022-07-29T01:55:32.100Z,68.81
2022-07-29T01:58:04.138Z,68.71
2022-07-29T02:00:33.076Z,69.10
2022-07-29T02:03:01.840Z,69.38
2022-07-29T02:05:30.758Z,69.18
2022-07-29T02:08:00.142Z,68.90
2022-07-29T02:10:30.702Z,69.03
2022-07-29T02:13:01.613Z,69.02
2022-07-29T02:15:31.237Z,69.01
2022-07-29T02:18:16.593Z,68.97
2022-07-29T02:20:50.195Z,69.05
2022-07-29T02:23:21.484Z,69.20
2022-07-29T02:25:57.606Z,69.24
2022-07-29T02:28:28.406Z,69.41
2022-07-29T02:31:00.539Z,69.66
2022-07-29T02:33:30.792Z,69.75
2022-07-29T02:35:59.352Z,69.65
2022-07-29T02:38:47.052Z,69.10
2022-07-29T02:41:17.977Z,69.84
2022-07-29T02:43:48.273Z,69.85
2022-07-29T02:46:29.324Z,69.61
2022-07-29T02:49:10.325Z,69.77
2022-07-29T02:51:47.637Z,69.78
2022-07-29T02:54:47.054Z,70.02
2022-07-29T02:57:31.381Z,69.80
2022-07-29T03:00:04.332Z,69.89
2022-07-29T03:02:37.553Z,69.70
2022-07-29T03:05:07.533Z,69.82
2022-07-29T03:07:36.478Z,69.98
2022-07-29T03:10:03.865Z,69.91
2022-07-29T03:12:31.489Z,69.62
2022-07-29T03:15:00.082Z,70.02
2022-07-29T03:17:26.949Z,69.42
2022-07-29T03:19:54.084Z,69.73
2022-07-29T03:22:20.846Z,69.71
2022-07-29T03:24:47.404Z,70.11
2022-07-29T03:27:14.151Z,69.92
2022-07-29T03:29:40.543Z,70.13
2022-07-29T03:32:10.067Z,69.39
2022-07-29T03:34:38.864Z,69.77
2022-07-29T03:37:07.077Z,70.01
2022-07-29T03:39:39.485Z,70.36
2022-07-29T03:42:08.868Z,70.07
2022-07-29T03:44:36.179Z,69.96
2022-07-29T03:47:03.810Z,70.03
2022-07-29T03:49:32.208Z,70.10
2022-07-29T03:51:59.336Z,70.50
2022-07-29T03:54:25.849Z,70.10
2022-07-29T03:56:55.128Z,70.28
2022-07-29T03:59:23.451Z,70.42
2022-07-29T04:01:51.061Z,70.51
2022-07-29T04:04:18.071Z,70.21
2022-07-29T04:06:46.690Z,70.21
2022-07-29T04:09:15.105Z,70.65
2022-07-29T04:11:57.039Z,70.51
2022-07-29T04:14:30.157Z,70.77
2022-07-29T04:16:56.594Z,70.65
2022-07-29T04:19:23.521Z,71.02
2022-07-29T04:21:50.090Z,70.86
2022-07-29T04:24:17.741Z,70.83
2022-07-29T04:26:44.668Z,70.93
2022-07-29T04:29:12.828Z,70.97
2022-07-29T04:31:39.385Z,70.38
2022-07-29T04:34:06.295Z,70.79
2022-07-29T04:36:33.245Z,70.65
2022-07-29T04:38:59.839Z,70.52
2022-07-29T04:41:33.445Z,70.35
2022-07-29T04:44:01.947Z,70.27
2022-07-29T04:46:28.902Z,70.23
2022-07-29T04:48:55.491Z,70.59
2022-07-29T04:51:22.059Z,70.39
2022-07-29T04:53:48.912Z,70.39
2022-07-29T04:56:15.379Z,70.38
2022-07-29T04:58:41.886Z,70.48
2022-07-29T05:01:08.592Z,70.32
2022-07-29T05:03:35.141Z,69.68
2022-07-29T05:06:01.542Z,69.78
2022-07-29T05:08:28.116Z,69.57
2022-07-29T05:10:54.641Z,69.43
2022-07-29T05:13:21.217Z,69.35
2022-07-29T05:15:47.956Z,69.65
2022-07-29T05:18:15.013Z,70.04
2022-07-29T05:20:41.771Z,69.31
2022-07-29T05:23:08.247Z,69.86
2022-07-29T05:25:42.046Z,69.82
2022-07-29T05:28:10.638Z,69.06
2022-07-29T05:30:37.313Z,68.73
2022-07-29T05:33:03.898Z,69.00
2022-07-29T05:35:30.320Z,69.09
2022-07-29T05:37:56.759Z,69.47
2022-07-29T05:40:23.288Z,68.92
2022-07-29T05:42:49.854Z,68.73
2022-07-29T05:45:16.438Z,69.39
2022-07-29T05:47:42.974Z,69.44
2022-07-29T05:50:09.763Z,69.64
2022-07-29T05:52:36.397Z,69.47
2022-07-29T05:55:05.217Z,69.33
2022-07-29T05:57:32.145Z,69.37
2022-07-29T05:59:59.154Z,69.23
2022-07-29T06:02:25.796Z,68.81
2022-07-29T06:04:52.316Z,69.14
2022-07-29T06:07:18.916Z,69.25
2022-07-29T06:09:45.428Z,69.75
2022-07-29T06:12:11.885Z,69.25
2022-07-29T06:14:39.148Z,69.17
2022-07-29T06:17:06.539Z,68.97
2022-07-29T06:19:35.434Z,69.08
2022-07-29T06:22:02.063Z,68.86
2022-07-29T06:24:28.739Z,69.00
2022-07-29T06:26:55.437Z,68.84
2022-07-29T06:29:21.910Z,68.87
2022-07-29T06:31:48.331Z,68.15
2022-07-29T06:34:15.071Z,67.96
2022-07-29T06:36:41.805Z,67.28
2022-07-29T06:39:09.331Z,66.51
2022-07-29T06:41:39.197Z,66.00
2022-07-29T06:44:05.758Z,65.55
2022-07-29T06:46:33.154Z,64.79
2022-07-29T06:49:00.005Z,65.05
2022-07-29T06:51:26.574Z,66.74
2022-07-29T06:53:59.397Z,66.21
2022-07-29T06:56:38.514Z,66.51
2022-07-29T06:59:07.230Z,65.24
2022-07-29T07:01:33.769Z,65.76
2022-07-29T07:04:00.257Z,65.15
2022-07-29T07:06:26.959Z,64.63
2022-07-29T07:08:53.377Z,64.34
2022-07-29T07:11:20.127Z,64.41
2022-07-29T07:13:46.544Z,63.00
2022-07-29T07:16:13.309Z,63.84
2022-07-29T07:18:39.824Z,61.76
2022-07-29T07:21:06.633Z,60.80
2022-07-29T07:23:33.236Z,62.28
2022-07-29T07:25:59.825Z,61.23
2022-07-29T07:28:26.316Z,61.08
2022-07-29T07:30:53.189Z,61.81
2022-07-29T07:33:19.794Z,60.19
2022-07-29T07:35:46.433Z,59.44
2022-07-29T07:38:13.250Z,58.32
2022-07-29T07:40:39.762Z,59.04
2022-07-29T07:43:06.431Z,58.20
2022-07-29T07:45:38.313Z,57.34
2022-07-29T07:48:05.726Z,58.52
2022-07-29T07:50:32.386Z,57.38
2022-07-29T07:53:03.064Z,55.39
2022-07-29T07:55:42.448Z,55.05
2022-07-29T07:58:16.261Z,54.83
2022-07-29T08:00:42.771Z,55.39
2022-07-29T08:03:16.808Z,54.52
2022-07-29T08:05:44.234Z,53.56
2022-07-29T08:08:10.750Z,53.69
2022-07-29T08:10:55.856Z,53.22
2022-07-29T08:13:24.163Z,53.65
2022-07-29T08:16:11.933Z,53.39
2022-07-29T08:18:39.915Z,52.60
2022-07-29T08:21:06.870Z,53.30
2022-07-29T08:23:45.515Z,53.53
2022-07-29T08:26:15.386Z,54.30
2022-07-29T08:28:46.797Z,54.41
2022-07-29T08:31:14.264Z,54.85
2022-07-29T08:33:40.802Z,55.21
2022-07-29T08:36:07.452Z,55.82
2022-07-29T08:38:34.236Z,55.36
2022-07-29T08:41:04.448Z,55.53
2022-07-29T08:43:31.008Z,56.00
2022-07-29T08:45:57.939Z,57.01
2022-07-29T08:48:25.618Z,56.79
2022-07-29T08:50:57.005Z,56.59
2022-07-29T08:53:30.788Z,56.10
2022-07-29T08:55:59.262Z,56.53
2022-07-29T08:58:27.668Z,56.21
2022-07-29T09:00:56.006Z,56.19
2022-07-29T09:03:26.784Z,57.79
2022-07-29T09:05:54.015Z,55.67
2022-07-29T09:08:21.053Z,57.10
2022-07-29T09:10:47.952Z,55.44
2022-07-29T09:13:14.595Z,55.32
2022-07-29T09:15:41.257Z,55.30
2022-07-29T09:18:07.877Z,55.42
2022-07-29T09:21:12.265Z,55.04
2022-07-29T09:23:40.601Z,55.23
2022-07-29T09:26:07.266Z,56.19
2022-07-29T09:28:34.021Z,56.46
2022-07-29T09:31:00.512Z,57.49
2022-07-29T09:33:40.128Z,57.67
2022-07-29T09:36:08.923Z,57.83
2022-07-29T09:38:37.549Z,57.25
2022-07-29T09:41:06.550Z,57.07
2022-07-29T09:43:34.657Z,56.36
2022-07-29T09:46:14.730Z,56.52
2022-07-29T09:48:41.543Z,57.14
2022-07-29T09:51:25.417Z,55.79
2022-07-29T09:53:55.226Z,56.52
2022-07-29T09:56:39.005Z,57.31
2022-07-29T09:59:09.571Z,57.29
2022-07-29T10:01:36.932Z,56.75
2022-07-29T10:04:04.014Z,56.99
2022-07-29T10:06:30.623Z,57.70
2022-07-29T10:09:09.237Z,57.79
2022-07-29T10:11:49.573Z,57.74
2022-07-29T10:14:16.878Z,56.32
2022-07-29T10:16:43.843Z,57.61
2022-07-29T10:19:10.600Z,56.80
2022-07-29T10:21:38.734Z,58.27
2022-07-29T10:24:06.910Z,56.76
2022-07-29T10:26:41.892Z,56.16
2022-07-29T10:29:08.335Z,56.01
2022-07-29T10:31:57.405Z,56.26
2022-07-29T10:34:45.683Z,56.03
2022-07-29T10:37:36.017Z,54.11
2022-07-29T10:40:34.624Z,55.13
2022-07-29T10:43:21.867Z,54.82
2022-07-29T10:45:50.282Z,54.89
2022-07-29T10:48:19.658Z,54.52
2022-07-29T10:51:06.953Z,55.69
2022-07-29T10:53:51.515Z,54.20
2022-07-29T10:56:28.873Z,53.80
2022-07-29T10:59:27.144Z,53.47
2022-07-29T11:02:35.416Z,54.91
2022-07-29T11:04:52.274Z,54.61
2022-07-29T11:07:18.831Z,56.27
2022-07-29T11:10:14.448Z,54.85
2022-07-29T11:12:44.170Z,53.48
2022-07-29T11:15:22.421Z,54.92
2022-07-29T11:17:54.638Z,55.68
2022-07-29T11:20:37.912Z,55.80
2022-07-29T11:26:21.228Z,54.66
2022-07-29T11:29:18.057Z,54.51
2022-07-29T11:31:49.292Z,55.00
2022-07-29T11:34:27.974Z,53.99
2022-07-29T11:37:17.720Z,53.64
2022-07-29T11:40:09.842Z,53.54
2022-07-29T11:42:36.759Z,54.55
2022-07-29T11:45:42.697Z,54.50
2022-07-29T11:48:29.099Z,55.32
2022-07-29T11:50:48.536Z,55.62
2022-07-29T11:53:16.197Z,54.43
2022-07-29T11:55:51.514Z,54.47
2022-07-29T11:58:25.090Z,54.61
2022-07-29T12:00:52.788Z,54.59
2022-07-29T12:03:32.816Z,55.59
2022-07-29T12:06:01.534Z,55.78
2022-07-29T12:08:28.624Z,54.05
2022-07-29T12:10:55.188Z,54.16
2022-07-29T12:13:22.383Z,54.40
2022-07-29T12:16:00.121Z,54.46
2022-07-29T12:18:28.792Z,53.64
2022-07-29T12:21:05.600Z,53.68
2022-07-29T12:23:34.409Z,54.35
2022-07-29T12:26:04.704Z,52.64
2022-07-29T12:28:38.557Z,53.77
2022-07-29T12:31:05.960Z,52.90
2022-07-29T12:33:32.769Z,53.04
2022-07-29T12:36:07.621Z,54.52
2022-07-29T12:38:36.758Z,52.52
2022-07-29T12:41:04.673Z,52.22
2022-07-29T12:43:31.509Z,52.79
2022-07-29T12:45:58.906Z,52.69
2022-07-29T12:48:42.772Z,51.72
2022-07-29T12:51:12.421Z,53.08
2022-07-29T12:53:39.369Z,53.29
2022-07-29T12:56:20.749Z,53.03
2022-07-29T12:58:53.178Z,52.75
2022-07-29T13:01:21.155Z,51.70
2022-07-29T13:03:56.823Z,52.66
2022-07-29T13:06:51.136Z,53.02
2022-07-29T13:09:24.002Z,52.51
2022-07-29T13:11:54.428Z,50.92
2022-07-29T13:14:44.762Z,51.55
2022-07-29T13:17:19.057Z,50.69
2022-07-29T13:19:53.916Z,51.50
2022-07-29T13:22:22.900Z,50.13
2022-07-29T13:24:55.023Z,49.65
2022-07-29T13:27:23.856Z,50.54
2022-07-29T13:29:53.865Z,50.51
2022-07-29T13:32:28.630Z,50.33
2022-07-29T13:35:04.928Z,49.19
2022-07-29T13:37:34.857Z,47.46
2022-07-29T13:40:04.002Z,47.73
2022-07-29T13:42:30.704Z,49.39
2022-07-29T13:44:57.659Z,46.09
2022-07-29T13:47:32.592Z,47.19
2022-07-29T13:50:02.270Z,50.14
2022-07-29T13:52:29.030Z,48.05
2022-07-29T13:54:55.461Z,48.59
2022-07-29T13:57:21.887Z,48.92
2022-07-29T13:59:53.723Z,48.50
2022-07-29T14:02:20.923Z,47.69
2022-07-29T14:04:47.427Z,47.34
2022-07-29T14:07:16.386Z,47.55
2022-07-29T14:09:43.220Z,48.65
2022-07-29T14:12:10.040Z,47.23
2022-07-29T14:14:37.550Z,48.79
2022-07-29T14:17:04.994Z,46.97
2022-07-29T14:19:33.169Z,47.34
2022-07-29T14:22:00.171Z,46.87
2022-07-29T14:24:27.150Z,47.68
2022-07-29T14:26:53.625Z,48.42
2022-07-29T14:29:20.182Z,47.59
2022-07-29T14:31:47.036Z,47.54
2022-07-29T14:34:13.532Z,47.29
2022-07-29T14:36:40.343Z,49.61
2022-07-29T14:39:06.808Z,47.91
2022-07-29T14:41:33.737Z,46.87
2022-07-29T14:44:03.045Z,47.55
2022-07-29T14:46:29.763Z,48.98
2022-07-29T14:48:56.698Z,49.36
2022-07-29T14:51:23.226Z,48.39
2022-07-29T14:53:49.830Z,45.24
2022-07-29T14:56:35.921Z,46.38
2022-07-29T14:59:02.851Z,46.87
2022-07-29T15:01:30.060Z,45.64
2022-07-29T15:03:59.656Z,45.77
2022-07-29T15:06:27.121Z,47.09
2022-07-29T15:08:53.513Z,45.33
2022-07-29T15:11:19.977Z,45.86
2022-07-29T15:13:46.710Z,45.88
2022-07-29T15:16:13.250Z,42.23
2022-07-29T15:18:39.962Z,44.20
2022-07-29T15:21:07.882Z,44.32
2022-07-29T15:23:37.060Z,44.19
2022-07-29T15:26:05.034Z,43.55
2022-07-29T15:28:31.578Z,43.57
2022-07-29T15:30:58.478Z,44.04
2022-07-29T15:33:24.982Z,44.95
2022-07-29T15:35:51.531Z,43.86
2022-07-29T15:38:18.280Z,44.11
2022-07-29T15:40:45.337Z,43.15
2022-07-29T15:43:12.529Z,43.24
2022-07-29T15:46:02.616Z,42.64
2022-07-29T15:48:29.513Z,46.19
2022-07-29T15:50:56.232Z,47.14
2022-07-29T15:53:22.857Z,47.65
2022-07-29T15:55:49.461Z,44.55
2022-07-29T15:58:15.954Z,45.69
2022-07-29T16:00:42.544Z,47.49
2022-07-29T16:03:08.974Z,44.50
2022-07-29T16:05:35.425Z,44.31
2022-07-29T16:08:04.148Z,46.38
2022-07-29T16:10:30.585Z,46.58
2022-07-29T16:12:57.445Z,45.16
2022-07-29T16:15:24.254Z,46.19
2022-07-29T16:17:50.749Z,45.52
2022-07-29T16:20:17.658Z,47.58
2022-07-29T16:22:44.310Z,46.45
2022-07-29T16:25:10.836Z,49.02
2022-07-29T16:27:38.294Z,47.62
2022-07-29T16:30:06.059Z,46.78
2022-07-29T16:32:34.913Z,47.92
2022-07-29T16:35:02.709Z,49.99
2022-07-29T16:37:33.422Z,48.38
2022-07-29T16:40:00.213Z,49.61
2022-07-29T16:42:45.504Z,51.09
2022-07-29T16:45:13.566Z,49.31
2022-07-29T16:47:42.622Z,50.24
2022-07-29T16:50:09.358Z,49.95
2022-07-29T16:52:37.515Z,49.92
2022-07-29T16:55:04.695Z,50.49
2022-07-29T16:57:31.204Z,50.74
2022-07-29T16:59:57.817Z,51.18
2022-07-29T17:02:24.323Z,49.24
2022-07-29T17:04:51.316Z,51.06
2022-07-29T17:07:17.755Z,52.15
2022-07-29T17:09:44.244Z,51.30
2022-07-29T17:12:10.754Z,51.73
2022-07-29T17:14:38.239Z,50.87
2022-07-29T17:17:05.593Z,51.30
2022-07-29T17:19:43.217Z,52.54
2022-07-29T17:22:14.324Z,52.62
2022-07-29T17:24:42.952Z,52.70
2022-07-29T17:27:10.343Z,53.10
2022-07-29T17:29:37.314Z,52.61
2022-07-29T17:32:04.118Z,53.00
2022-07-29T17:34:36.105Z,52.71
2022-07-29T17:37:03.205Z,52.81
2022-07-29T17:39:29.809Z,52.84
2022-07-29T17:41:57.849Z,52.94
2022-07-29T17:44:27.441Z,53.65
2022-07-29T17:46:54.001Z,53.85
2022-07-29T17:49:20.743Z,54.34
2022-07-29T17:51:47.367Z,54.06
2022-07-29T17:54:14.166Z,54.49
2022-07-29T17:56:41.473Z,54.43
2022-07-29T17:59:10.013Z,54.95
2022-07-29T18:01:38.274Z,55.83
2022-07-29T18:04:05.022Z,55.17
2022-07-29T18:06:31.566Z,55.72
2022-07-29T18:09:00.852Z,56.22
2022-07-29T18:11:27.634Z,56.52
2022-07-29T18:13:54.137Z,56.92
2022-07-29T18:16:21.885Z,57.22
2022-07-29T18:18:48.599Z,57.32
2022-07-29T18:21:15.081Z,57.43
2022-07-29T18:23:42.316Z,58.65
2022-07-29T18:26:09.774Z,58.23
2022-07-29T18:28:36.289Z,59.35
2022-07-29T18:31:02.906Z,61.16
2022-07-29T18:33:29.497Z,61.26
2022-07-29T18:36:11.195Z,62.53
2022-07-29T18:38:39.852Z,64.03
2022-07-29T18:41:08.419Z,63.75
2022-07-29T18:43:36.177Z,64.62
2022-07-29T18:46:02.750Z,64.21
2022-07-29T18:48:29.293Z,65.52
2022-07-29T18:50:55.934Z,66.11
2022-07-29T18:53:25.112Z,66.05
2022-07-29T18:55:51.723Z,66.79
2022-07-29T18:58:18.187Z,67.65
2022-07-29T19:00:44.727Z,67.85
2022-07-29T19:03:11.425Z,67.87
2022-07-29T19:05:38.232Z,67.88
2022-07-29T19:08:04.937Z,68.60
2022-07-29T19:10:32.533Z,68.79
2022-07-29T19:12:59.415Z,69.07
2022-07-29T19:15:26.081Z,69.83
2022-07-29T19:17:52.568Z,70.23
2022-07-29T19:20:19.209Z,69.76
2022-07-29T19:22:46.455Z,69.85
2022-07-29T19:25:13.325Z,70.49
2022-07-29T19:27:41.788Z,69.27
2022-07-29T19:30:09.602Z,70.54
2022-07-29T19:32:36.535Z,70.83
2022-07-29T19:35:22.031Z,70.75
2022-07-29T19:37:48.666Z,72.21
2022-07-29T19:40:16.219Z,72.26
2022-07-29T19:42:43.480Z,73.41
2022-07-29T19:45:11.657Z,72.81
2022-07-29T19:47:38.212Z,73.69
2022-07-29T19:50:05.446Z,74.15
2022-07-29T19:52:32.129Z,73.99
2022-07-29T19:54:59.829Z,74.55
2022-07-29T19:57:28.496Z,74.26
2022-07-29T20:00:11.134Z,74.64
2022-07-29T20:02:39.343Z,74.98
2022-07-29T20:05:06.085Z,74.71
2022-07-29T20:07:32.589Z,75.48
2022-07-29T20:09:59.283Z,75.95
2022-07-29T20:12:25.926Z,75.98
2022-07-29T20:14:53.073Z,75.54
2022-07-29T20:17:25.299Z,76.46
2022-07-29T20:19:52.883Z,76.74
2022-07-29T20:22:20.800Z,76.79
2022-07-29T20:24:48.409Z,77.44
2022-07-29T20:27:14.963Z,77.65
2022-07-29T20:29:41.510Z,77.37
2022-07-29T20:32:08.082Z,77.54
2022-07-29T20:34:34.625Z,78.11
2022-07-29T20:37:02.744Z,78.44
2022-07-29T20:39:29.422Z,78.54
2022-07-29T20:41:56.190Z,78.42
2022-07-29T20:44:24.255Z,78.52
2022-07-29T20:46:50.895Z,79.20
2022-07-29T20:49:17.477Z,79.61
2022-07-29T20:51:44.315Z,79.58
2022-07-29T20:54:11.081Z,79.00
2022-07-29T20:56:38.114Z,78.95
2022-07-29T20:59:04.843Z,79.46
2022-07-29T21:01:31.334Z,79.63
2022-07-29T21:03:57.965Z,79.76
2022-07-29T21:06:24.452Z,79.49
2022-07-29T21:08:50.842Z,79.38
2022-07-29T21:11:17.828Z,79.54
2022-07-29T21:14:04.440Z,79.44
2022-07-29T21:16:33.293Z,79.55
2022-07-29T21:18:59.797Z,79.58
2022-07-29T21:21:26.858Z,79.86
2022-07-29T21:23:53.478Z,79.92
2022-07-29T21:26:20.109Z,80.23
2022-07-29T21:28:46.627Z,80.54
2022-07-29T21:31:17.441Z,80.00
2022-07-29T21:33:48.601Z,80.25
2022-07-29T21:36:46.391Z,80.10
2022-07-29T21:39:06.947Z,80.30
2022-07-29T21:41:34.428Z,80.05
2022-07-29T21:44:01.394Z,80.19
2022-07-29T21:46:28.150Z,80.36
2022-07-29T21:48:55.046Z,80.27
2022-07-29T21:51:21.519Z,80.20
2022-07-29T21:53:52.418Z,80.45
2022-07-29T21:56:21.254Z,80.36
2022-07-29T21:58:50.025Z,80.40
2022-07-29T22:01:16.515Z,80.34
2022-07-29T22:03:45.797Z,80.59
2022-07-29T22:06:17.868Z,81.27
2022-07-29T22:08:45.633Z,80.44
2022-07-29T22:11:13.479Z,80.72
2022-07-29T22:13:41.547Z,80.99
2022-07-29T22:16:10.042Z,80.74
2022-07-29T22:18:36.584Z,80.29
2022-07-29T22:21:03.127Z,81.00
2022-07-29T22:23:29.537Z,81.65
2022-07-29T22:25:56.082Z,81.45
2022-07-29T22:28:22.605Z,80.79
2022-07-29T22:30:49.299Z,81.29
2022-07-29T22:33:17.810Z,81.64
2022-07-29T22:35:45.718Z,82.55
2022-07-29T22:38:15.257Z,82.22
2022-07-29T22:40:41.704Z,82.35
2022-07-29T22:43:08.203Z,82.90
2022-07-29T22:45:34.857Z,82.96
2022-07-29T22:48:01.434Z,82.90
2022-07-29T22:50:29.763Z,82.42
2022-07-29T22:52:56.249Z,82.91
2022-07-29T22:55:22.875Z,83.09
2022-07-29T22:57:49.341Z,82.95
2022-07-29T23:00:16.254Z,82.79
2022-07-29T23:02:42.773Z,82.44
2022-07-29T23:05:10.457Z,82.42
2022-07-29T23:07:36.973Z,83.17
2022-07-29T23:10:04.871Z,82.89
2022-07-29T23:12:31.505Z,83.21
2022-07-29T23:14:57.986Z,83.25
2022-07-29T23:17:24.480Z,83.37
2022-07-29T23:19:51.095Z,82.90
2022-07-29T23:22:18.456Z,83.10
2022-07-29T23:24:45.391Z,83.83
2022-07-29T23:27:11.840Z,83.74
2022-07-29T23:29:38.303Z,84.19
2022-07-29T23:32:05.225Z,83.79
2022-07-29T23:34:31.864Z,83.73
2022-07-29T23:36:59.207Z,83.65
2022-07-29T23:39:25.839Z,84.10
2022-07-29T23:41:52.393Z,84.46
2022-07-29T23:44:18.859Z,84.64
2022-07-29T23:46:45.453Z,84.71
2022-07-29T23:49:12.350Z,84.71
2022-07-29T23:51:38.854Z,84.34
2022-07-29T23:54:05.410Z,85.01
2022-07-29T23:56:31.879Z,84.88
2022-07-29T23:58:58.825Z,85.06
